»·PEaware :: AAY364 KBOI-KLAS

AAY364 :: KBOI-KLAS

FLIGHT INFORMATION

Flight Status: Arrived
Operator:
Allegiant Air
More flights by this operator :: More flights under this callsign
Pilot: Ayler C. (2001)
Aircraft: AIRBUS A320
(A320)
More flights by this aircraft type
Origin: KBOI Boise Air Terminal/Gowen
United States
Destination: KLAS McCarran Intl
United States
More flights between these airports :: More routes between these airports
Route: +BOI3 ROARR LYONS CRITO WINEN MPIRE SITEE4
File this flight plan on PilotEdge
Remarks: RMK / SIMBRIEF
Altitude:
(Current/Filed)
37,000ft
Speed:
(Current/Filed)
454kts
Departed: 09-Sep-20 03:34 PM
Arrived: 09-Sep-20 04:51 PM
Distance/Time
Traveled:
451nm/1:17
Distance/Time
To Go:
Arrived

Flight Plot

Page will automatically refresh every two minutes.

Flight plan parsing failed; only flown route is shown


Map Options




Map Legend


Flown Route
Filed Route
Departure Airport
Arrival Airport
Navaid (VOR, NDB)
Fix

Horizontal Profiles

Position Reports

Time Latitude Longitude Heading Altitude Ground
Speed
09-Sep-20 15:09 43.567164 -116.222071 334 2880ft 0kts
09-Sep-20 15:10 43.567164 -116.222071 334 2880ft 0kts
09-Sep-20 15:11 43.567164 -116.222071 334 2880ft 0kts
09-Sep-20 15:12 43.567164 -116.222071 334 2880ft 0kts
09-Sep-20 15:13 43.567164 -116.222071 334 2880ft 0kts
09-Sep-20 15:14 43.567164 -116.222071 334 2880ft 0kts
09-Sep-20 15:15 43.567164 -116.222071 334 2880ft 0kts
09-Sep-20 15:16 43.567164 -116.222071 334 2880ft 0kts
09-Sep-20 15:17 43.567164 -116.222071 334 2880ft 0kts
09-Sep-20 15:18 43.567164 -116.222071 334 2880ft 0kts
09-Sep-20 15:19 43.567164 -116.222071 334 2880ft 0kts
09-Sep-20 15:20 43.567164 -116.222071 334 2880ft 0kts
09-Sep-20 15:21 43.567163 -116.222071 334 2880ft 0kts
09-Sep-20 15:22 43.567139 -116.222048 351 2880ft 0kts
09-Sep-20 15:23 43.566587 -116.222169 7 2880ft 2kts
09-Sep-20 15:24 43.566302 -116.221945 296 2880ft 2kts
09-Sep-20 15:25 43.566191 -116.221600 294 2880ft 0kts
09-Sep-20 15:26 43.566191 -116.221601 294 2880ft 0kts
09-Sep-20 15:27 43.566630 -116.222946 294 2880ft 7kts
09-Sep-20 15:28 43.567513 -116.225559 295 2880ft 7kts
09-Sep-20 15:29 43.568567 -116.228569 296 2880ft 9kts
09-Sep-20 15:30 43.570081 -116.232989 295 2880ft 17kts
09-Sep-20 15:31 43.570959 -116.235558 285 2880ft 0kts
09-Sep-20 15:32 43.570934 -116.236070 244 2880ft 9kts
09-Sep-20 15:33 43.559301 -116.204810 114 3300ft 196kts
09-Sep-20 15:34 43.534287 -116.126608 112 5831ft 262kts
09-Sep-20 15:35 43.503267 -116.027352 114 8672ft 292kts
09-Sep-20 15:36 43.469855 -115.922291 114 11357ft 321kts
09-Sep-20 15:38 43.430730 -115.799867 111 12860ft 369kts
09-Sep-20 15:39 43.388584 -115.668345 110 15066ft 383kts
09-Sep-20 15:40 43.344760 -115.532368 110 17049ft 397kts
09-Sep-20 15:41 43.299157 -115.392089 112 18876ft 409kts
09-Sep-20 15:42 43.219682 -115.275242 132 20519ft 429kts
09-Sep-20 15:43 43.131987 -115.161298 132 22037ft 439kts
09-Sep-20 15:44 43.042571 -115.045580 132 23472ft 447kts
09-Sep-20 15:45 42.951416 -114.928126 132 24722ft 457kts
09-Sep-20 15:46 42.858206 -114.808550 132 25892ft 464kts
09-Sep-20 15:47 42.750565 -114.710798 161 26886ft 487kts
09-Sep-20 15:48 42.614013 -114.696490 175 27807ft 500kts
09-Sep-20 15:49 42.474282 -114.689900 175 28622ft 507kts
09-Sep-20 15:50 42.334696 -114.683433 175 29605ft 507kts
09-Sep-20 15:51 42.194269 -114.676973 175 30633ft 506kts
09-Sep-20 15:51 42.077646 -114.671636 175 31480ft 504kts
09-Sep-20 15:53 41.914783 -114.664217 174 32451ft 506kts
09-Sep-20 15:54 41.774633 -114.657864 174 33284ft 505kts
09-Sep-20 15:54 41.658301 -114.652609 174 33912ft 505kts
09-Sep-20 15:56 41.494962 -114.645267 174 34705ft 505kts
09-Sep-20 15:57 41.355451 -114.639022 174 35376ft 504kts
09-Sep-20 15:57 41.239010 -114.633831 175 35894ft 504kts
09-Sep-20 15:58 41.099321 -114.627629 175 36448ft 505kts
09-Sep-20 15:59 40.958959 -114.621423 175 36923ft 507kts
09-Sep-20 16:00 40.818641 -114.615247 175 37237ft 508kts
09-Sep-20 16:01 40.678071 -114.609085 175 37263ft 510kts
09-Sep-20 16:02 40.537121 -114.602931 175 37271ft 511kts
09-Sep-20 16:03 40.395709 -114.596783 175 37270ft 513kts
09-Sep-20 16:04 40.253906 -114.590645 174 37268ft 514kts
09-Sep-20 16:05 40.111009 -114.584483 174 37259ft 515kts
09-Sep-20 16:06 39.967969 -114.578341 175 37257ft 516kts
09-Sep-20 16:07 39.824748 -114.572222 175 37245ft 517kts
09-Sep-20 16:08 39.681526 -114.566121 175 37238ft 518kts
09-Sep-20 16:09 39.537802 -114.560031 175 37252ft 520kts
09-Sep-20 16:10 39.393554 -114.553939 175 37273ft 521kts
09-Sep-20 16:11 39.255417 -114.515244 143 37281ft 508kts
09-Sep-20 16:12 39.135739 -114.421266 142 37269ft 507kts
09-Sep-20 16:13 39.015240 -114.327275 143 37244ft 509kts
09-Sep-20 16:14 38.894402 -114.233417 143 37218ft 512kts
09-Sep-20 16:15 38.772807 -114.139339 144 37198ft 513kts
09-Sep-20 16:16 38.650418 -114.045032 143 37192ft 516kts
09-Sep-20 16:17 38.527598 -113.950774 143 37201ft 519kts
09-Sep-20 16:18 38.403561 -113.855960 143 37212ft 522kts
09-Sep-20 16:19 38.292356 -113.771280 144 37202ft 524kts
09-Sep-20 16:20 38.167714 -113.676737 144 37210ft 525kts
09-Sep-20 16:21 38.042976 -113.582496 144 37210ft 525kts
09-Sep-20 16:22 37.911550 -113.503911 171 37207ft 535kts
09-Sep-20 16:23 37.764330 -113.503022 181 37200ft 531kts
09-Sep-20 16:24 37.617308 -113.505540 181 37170ft 528kts
09-Sep-20 16:25 37.478751 -113.549386 209 36937ft 516kts
09-Sep-20 16:26 37.351062 -113.626054 210 35098ft 515kts
09-Sep-20 16:27 37.220290 -113.704108 210 31783ft 531kts
09-Sep-20 16:28 37.086876 -113.783478 210 28590ft 536kts
09-Sep-20 16:29 36.952555 -113.863018 210 24329ft 537kts
09-Sep-20 16:30 36.819128 -113.941688 209 21465ft 524kts
09-Sep-20 16:31 36.692503 -114.016020 209 18657ft 489kts
09-Sep-20 16:32 36.577978 -114.090413 227 15964ft 439kts
09-Sep-20 16:33 36.511782 -114.209722 240 13614ft 414kts
09-Sep-20 16:34 36.453362 -114.323491 240 12745ft 366kts
09-Sep-20 16:35 36.402128 -114.423096 240 12192ft 320kts
09-Sep-20 16:36 36.355856 -114.513096 240 11371ft 306kts
09-Sep-20 16:37 36.310511 -114.601183 239 10360ft 303kts
09-Sep-20 16:38 36.265310 -114.688879 238 8784ft 291kts
09-Sep-20 16:39 36.225689 -114.765553 238 8399ft 253kts
09-Sep-20 16:40 36.187670 -114.838909 238 7324ft 255kts
09-Sep-20 16:41 36.150402 -114.911081 238 6549ft 247kts
09-Sep-20 16:42 36.136801 -114.989887 273 6043ft 244kts
09-Sep-20 16:43 36.104528 -115.058839 222 6032ft 246kts
09-Sep-20 16:44 36.053648 -115.115765 222 6028ft 247kts
09-Sep-20 16:45 36.003247 -115.172791 222 6017ft 245kts
09-Sep-20 16:46 35.992744 -115.241867 325 5052ft 234kts
09-Sep-20 16:47 36.044960 -115.234508 77 4943ft 186kts
09-Sep-20 16:48 36.048449 -115.182679 51 3466ft 169kts
09-Sep-20 16:49 36.086100 -115.160639 25 2190ft 99kts
09-Sep-20 16:50 36.092275 -115.155780 111 2190ft 0kts
09-Sep-20 16:51 36.092275 -115.155780 111 2190ft 0kts
09-Sep-20 16:52 36.092267 -115.155754 111 2190ft 1kts
09-Sep-20 16:53 36.089015 -115.154963 182 2190ft 19kts
09-Sep-20 16:54 36.085769 -115.154701 147 2190ft 0kts
09-Sep-20 16:55 36.085769 -115.154702 147 2190ft 0kts
09-Sep-20 16:56 36.085769 -115.154702 147 2190ft 0kts
09-Sep-20 16:57 36.085769 -115.154702 147 2190ft 0kts
09-Sep-20 16:58 36.085769 -115.154702 147 2190ft 0kts
09-Sep-20 16:59 36.085769 -115.154702 147 2190ft 0kts
09-Sep-20 17:00 36.085769 -115.154702 147 2190ft 0kts
09-Sep-20 17:01 36.085769 -115.154702 147 2190ft 0kts
09-Sep-20 17:02 36.085769 -115.154702 147 2190ft 0kts
09-Sep-20 17:03 36.085769 -115.154702 147 2190ft 0kts

Navigation Log

Ident Type
Flight plan parsing failed, navigation log unavailable